Latest Weather Observations for Lord Howe Island Windy Point

IDN60801

Issued at 10:02 am EDT Wednesday 22 February 2017 (issued every 30 minutes, with the page automatically refreshed every 10 minutes)

About weather observations | Map of weather stations | Latest weather observations for NSW | Other Formats
Station Details ID: 200715 Name: LORD HOWE ISLAND WINDY POINT Lat: -31.54 Lon: 159.07 Height: 4.0 m
Data from the previous 72 hours. | See also: Recent months for locations in New South Wales
Date/Time
EDT
Temp
°C
App
Temp
°C
Dew
Point
°C
Rel
Hum
%
Delta-T
°C
Wind Press
QNH
hPa
Press
MSL
hPa
Rain since
9am
mm
Dir  Spd
km/h
Gust
km/h
Spd
kts
Gust
kts
22/10:00am - - - - - ESE 30 56 16 30 - - -
22/09:44am - - - - - E 32 54 17 29 - - -
22/09:30am - - - - - ESE 26 48 14 26 - - -
22/09:17am - - - - - SE 28 46 15 25 - - -
22/09:00am - - - - - ESE 26 43 14 23 - - -
22/08:51am - - - - - ESE 22 50 12 27 - - -
22/08:30am - - - - - SE 20 35 11 19 - - -
22/08:00am - - - - - E 28 52 15 28 - - -
22/07:35am - - - - - ESE 28 48 15 26 - - -
22/07:30am - - - - - ESE 26 44 14 24 - - -
22/07:06am - - - - - ESE 26 48 14 26 - - -
22/07:00am - - - - - ESE 22 41 12 22 - - -
22/06:38am - - - - - ESE 22 48 12 26 - - -
22/06:30am - - - - - ESE 24 46 13 25 - - -
22/06:08am - - - - - ESE 28 50 15 27 - - -
22/06:00am - - - - - ESE 20 39 11 21 - - -
22/05:30am - - - - - ESE 20 35 11 19 - - -
22/05:00am - - - - - ESE 19 39 10 21 - - -
22/04:38am - - - - - ESE 19 48 10 26 - - -
22/04:30am - - - - - ESE 15 33 8 18 - - -
22/04:01am - - - - - ESE 24 50 13 27 - - -
22/04:00am - - - - - ESE 24 37 13 20 - - -
22/03:30am - - - - - ESE 20 43 11 23 - - -
22/03:00am - - - - - SE 13 28 7 15 - - -
22/02:30am - - - - - ESE 26 43 14 23 - - -
22/02:00am - - - - - SE 22 41 12 22 - - -
22/01:30am - - - - - ESE 22 44 12 24 - - -
22/01:00am - - - - - ESE 20 48 11 26 - - -
22/12:45am - - - - - ESE 28 46 15 25 - - -
22/12:30am - - - - - ESE 26 44 14 24 - - -
22/12:17am - - - - - ESE 26 48 14 26 - - -
22/12:00am - - - - - ESE 24 43 13 23 - - -
 
Date/Time
EDT
Temp
°C
App
Temp
°C
Dew
Point
°C
Rel
Hum
%
Delta-T
°C
Wind Press
QNH
hPa
Press
MSL
hPa
Rain since
9am
mm
Dir  Spd
km/h
Gust
km/h
Spd
kts
Gust
kts
21/11:30pm - - - - - SE 20 43 11 23 - - -
21/11:12pm - - - - - E 26 52 14 28 - - -
21/11:00pm - - - - - ESE 24 70 13 38 - - -
21/10:40pm - - - - - E 28 54 15 29 - - -
21/10:30pm - - - - - ESE 24 48 13 26 - - -
21/10:13pm - - - - - SE 24 46 13 25 - - -
21/10:00pm - - - - - ESE 28 44 15 24 - - -
21/09:30pm - - - - - ESE 24 44 13 24 - - -
21/09:00pm - - - - - ESE 22 54 12 29 - - -
21/08:30pm - - - - - ESE 20 54 11 29 - - -
21/08:23pm - - - - - SE 24 54 13 29 - - -
21/08:00pm - - - - - ESE 20 44 11 24 - - -
21/07:49pm - - - - - ESE 28 50 15 27 - - -
21/07:48pm - - - - - ESE 28 50 15 27 - - -
21/07:30pm - - - - - ESE 24 41 13 22 - - -
21/07:00pm - - - - - ESE 28 44 15 24 - - -
21/06:56pm - - - - - ESE 28 46 15 25 - - -
21/06:30pm - - - - - ESE 20 37 11 20 - - -
21/06:00pm - - - - - SSE 20 44 11 24 - - -
21/05:30pm - - - - - S 20 41 11 22 - - -
21/05:00pm - - - - - SE 20 39 11 21 - - -
21/04:38pm - - - - - SSE 28 59 15 32 - - -
21/04:30pm - - - - - SSE 24 52 13 28 - - -
21/04:05pm - - - - - S 28 57 15 31 - - -
21/04:00pm - - - - - SSE 20 39 11 21 - - -
21/03:30pm - - - - - S 24 50 13 27 - - -
21/03:00pm - - - - - ESE 26 48 14 26 - - -
21/02:30pm - - - - - SE 19 39 10 21 - - -
21/02:00pm - - - - - SE 19 37 10 20 - - -
21/01:30pm - - - - - SE 20 33 11 18 - - -
21/01:11pm - - - - - ESE 28 48 15 26 - - -
21/01:00pm - - - - - ESE 26 43 14 23 - - -
21/12:45pm - - - - - ESE 26 50 14 27 - - -
21/12:30pm - - - - - SE 20 32 11 17 - - -
21/12:00pm - - - - - SSW 17 35 9 19 - - -
21/11:30am - - - - - S 24 39 13 21 - - -
21/11:00am - - - - - S 17 32 9 17 - - -
21/10:30am - - - - - S 15 30 8 16 - - -
21/10:00am - - - - - ESE 22 39 12 21 - - -
21/09:30am - - - - - ESE 19 35 10 19 - - -
21/09:00am - - - - - ESE 22 46 12 25 - - -
21/08:30am - - - - - SE 24 43 13 23 - - -
21/08:00am - - - - - SE 15 28 8 15 - - -
21/07:30am - - - - - SE 17 30 9 16 - - -
21/07:00am - - - - - SE 11 30 6 16 - - -
21/06:30am - - - - - SE 13 22 7 12 - - -
21/06:00am - - - - - SE 9 13 5 7 - - -
21/05:30am - - - - - SE 9 22 5 12 - - -
21/05:00am - - - - - SE 9 15 5 8 - - -
21/04:30am - - - - - ESE 7 9 4 5 - - -
21/04:00am - - - - - SSE 9 13 5 7 - - -
21/03:30am - - - - - SSW 26 32 14 17 - - -
21/03:00am - - - - - SSW 26 32 14 17 - - -
21/02:30am - - - - - SSW 26 32 14 17 - - -
21/02:00am - - - - - SSW 26 32 14 17 - - -
21/01:30am - - - - - SSW 28 32 15 17 - - -
21/01:00am - - - - - SSW 24 30 13 16 - - -
21/12:30am - - - - - SSW 26 30 14 16 - - -
21/12:00am - - - - - S 19 26 10 14 - - -
 
Date/Time
EDT
Temp
°C
App
Temp
°C
Dew
Point
°C
Rel
Hum
%
Delta-T
°C
Wind Press
QNH
hPa
Press
MSL
hPa
Rain since
9am
mm
Dir  Spd
km/h
Gust
km/h
Spd
kts
Gust
kts
20/11:30pm - - - - - SSE 13 20 7 11 - - -
20/11:00pm - - - - - SSW 17 22 9 12 - - -
20/10:30pm - - - - - S 11 17 6 9 - - -
20/10:00pm - - - - - S 11 19 6 10 - - -
20/09:30pm - - - - - SSW 17 24 9 13 - - -
20/09:00pm - - - - - SSW 22 26 12 14 - - -
20/08:30pm - - - - - SSW 20 24 11 13 - - -
20/08:00pm - - - - - SSW 17 19 9 10 - - -
20/07:30pm - - - - - SSW 13 15 7 8 - - -
20/07:00pm - - - - - SSW 11 13 6 7 - - -
20/06:30pm - - - - - S 9 15 5 8 - - -
20/06:00pm - - - - - SW 17 20 9 11 - - -
20/05:30pm - - - - - N 2 7 1 4 - - -
20/05:00pm - - - - - ENE 7 9 4 5 - - -
20/04:30pm - - - - - SSW 2 6 1 3 - - -
20/04:00pm - - - - - SW 9 11 5 6 - - -
20/03:30pm - - - - - W 13 15 7 8 - - -
20/03:00pm - - - - - E 9 15 5 8 - - -
20/02:30pm - - - - - E 19 22 10 12 - - -
20/02:00pm - - - - - E 4 7 2 4 - - -
20/01:30pm - - - - - ESE 6 11 3 6 - - -
20/01:00pm - - - - - WNW 13 15 7 8 - - -
20/12:30pm - - - - - E 7 13 4 7 - - -
20/12:00pm - - - - - ESE 2 7 1 4 - - -
20/11:30am - - - - - NNE 6 9 3 5 - - -
20/11:00am - - - - - NE 17 24 9 13 - - -
20/10:30am - - - - - SSW 13 20 7 11 - - -
20/10:00am - - - - - SW 17 20 9 11 - - -
20/09:30am - - - - - WSW 24 28 13 15 - - -
20/09:17am - - - - - WNW 32 57 17 31 - - -
20/09:15am - - - - - WNW 30 57 16 31 - - -
20/09:13am - - - - - NW 24 57 13 31 - - -
20/09:00am - - - - - NW 20 43 11 23 - - -
20/08:51am - - - - - NW 20 46 11 25 - - -
20/08:30am - - - - - NNE 6 11 3 6 - - -
20/08:00am - - - - - NW 17 30 9 16 - - -
20/07:30am - - - - - NW 15 28 8 15 - - -
20/07:00am - - - - - NW 11 20 6 11 - - -
20/06:30am - - - - - NW 17 24 9 13 - - -
20/06:00am - - - - - WNW 15 24 8 13 - - -
20/05:30am - - - - - NE 13 20 7 11 - - -
20/05:00am - - - - - N 13 24 7 13 - - -
20/04:30am - - - - - NNE 11 17 6 9 - - -
20/04:00am - - - - - NNE 15 24 8 13 - - -
20/03:30am - - - - - NNE 9 17 5 9 - - -
20/03:00am - - - - - NNE 9 17 5 9 - - -
20/02:30am - - - - - NNE 13 24 7 13 - - -
20/02:00am - - - - - NNE 15 28 8 15 - - -
20/01:30am - - - - - NNE 13 26 7 14 - - -
20/01:00am - - - - - NNE 15 24 8 13 - - -
20/12:30am - - - - - NNE 19 33 10 18 - - -
20/12:00am - - - - - NNE 15 28 8 15 - - -
 
Date/Time
EDT
Temp
°C
App
Temp
°C
Dew
Point
°C
Rel
Hum
%
Delta-T
°C
Wind Press
QNH
hPa
Press
MSL
hPa
Rain since
9am
mm
Dir  Spd
km/h
Gust
km/h
Spd
kts
Gust
kts
19/11:30pm - - - - - NE 13 20 7 11 - - -
19/11:00pm - - - - - NNE 20 46 11 25 - - -
19/10:30pm - - - - - NNE 17 30 9 16 - - -
19/10:00pm - - - - - E 17 35 9 19 - - -
19/09:30pm - - - - - E 17 37 9 20 - - -
19/09:00pm - - - - - E 20 39 11 21 - - -
19/08:30pm - - - - - E 15 33 8 18 - - -
19/08:00pm - - - - - E 20 35 11 19 - - -
19/07:30pm - - - - - NE 15 41 8 22 - - -
19/07:00pm - - - - - E 15 35 8 19 - - -
19/06:30pm - - - - - NNE 17 37 9 20 - - -
19/06:00pm - - - - - NE 19 35 10 19 - - -
19/05:30pm - - - - - NNE 22 43 12 23 - - -
19/05:00pm - - - - - NE 20 37 11 20 - - -
19/04:30pm - - - - - NNE 17 33 9 18 - - -
19/04:00pm - - - - - NNE 20 39 11 21 - - -
19/03:30pm - - - - - NNE 19 44 10 24 - - -
19/03:00pm - - - - - NNE 22 39 12 21 - - -
19/02:30pm - - - - - NNE 20 39 11 21 - - -
19/02:00pm - - - - - NNE 20 37 11 20 - - -
19/01:30pm - - - - - NNE 22 44 12 24 - - -
19/01:00pm - - - - - NNE 24 44 13 24 - - -
19/12:30pm - - - - - NNE 24 37 13 20 - - -
19/12:00pm - - - - - NNE 20 35 11 19 - - -
19/11:30am - - - - - NE 15 32 8 17 - - -
19/11:00am - - - - - E 20 35 11 19 - - -
19/10:30am - - - - - E 17 28 9 15 - - -

Other Formats:

Comma delimited format used in spreadsheet applications
http://www.bom.gov.au/fwo/IDN60801/IDN60801.95995.axf

JavaScript Object Notation format (JSON) in row-major order
http://www.bom.gov.au/fwo/IDN60801/IDN60801.95995.json